sensor_id;sensor_type;location;lat;lon;timestamp;P1;durP1;ratioP1;P2;durP2;ratioP2
20140;SDS011;10231;47.702;9.826;2023-12-04T00:02:00;8.47;;;7.60;;
20140;SDS011;10231;47.702;9.826;2023-12-04T00:04:25;8.43;;;7.63;;
20140;SDS011;10231;47.702;9.826;2023-12-04T00:06:51;9.17;;;7.80;;
20140;SDS011;10231;47.702;9.826;2023-12-04T00:09:16;9.27;;;7.73;;
20140;SDS011;10231;47.702;9.826;2023-12-04T00:11:42;8.30;;;6.43;;
20140;SDS011;10231;47.702;9.826;2023-12-04T00:14:07;8.67;;;7.73;;
20140;SDS011;10231;47.702;9.826;2023-12-04T00:16:33;9.07;;;7.20;;
20140;SDS011;10231;47.702;9.826;2023-12-04T00:19:02;9.00;;;7.50;;
20140;SDS011;10231;47.702;9.826;2023-12-04T00:21:28;7.80;;;6.90;;
20140;SDS011;10231;47.702;9.826;2023-12-04T00:23:53;10.17;;;7.23;;
20140;SDS011;10231;47.702;9.826;2023-12-04T00:26:19;9.37;;;8.37;;
20140;SDS011;10231;47.702;9.826;2023-12-04T00:28:44;9.80;;;7.53;;
20140;SDS011;10231;47.702;9.826;2023-12-04T00:31:10;8.00;;;7.27;;
20140;SDS011;10231;47.702;9.826;2023-12-04T00:33:36;9.13;;;8.20;;
20140;SDS011;10231;47.702;9.826;2023-12-04T00:36:01;8.37;;;7.50;;
20140;SDS011;10231;47.702;9.826;2023-12-04T00:38:27;8.53;;;7.67;;
20140;SDS011;10231;47.702;9.826;2023-12-04T00:40:53;8.27;;;7.40;;
20140;SDS011;10231;47.702;9.826;2023-12-04T00:43:18;8.47;;;7.57;;
20140;SDS011;10231;47.702;9.826;2023-12-04T00:45:44;9.43;;;7.50;;
20140;SDS011;10231;47.702;9.826;2023-12-04T00:48:09;8.07;;;6.67;;
20140;SDS011;10231;47.702;9.826;2023-12-04T00:50:35;9.17;;;7.90;;
20140;SDS011;10231;47.702;9.826;2023-12-04T00:53:00;8.33;;;6.70;;
20140;SDS011;10231;47.702;9.826;2023-12-04T00:55:26;9.00;;;7.47;;
20140;SDS011;10231;47.702;9.826;2023-12-04T00:57:52;9.37;;;7.87;;
20140;SDS011;10231;47.702;9.826;2023-12-04T01:00:17;10.07;;;7.30;;
20140;SDS011;10231;47.702;9.826;2023-12-04T01:02:43;10.30;;;7.73;;
20140;SDS011;10231;47.702;9.826;2023-12-04T01:05:08;8.83;;;7.93;;
20140;SDS011;10231;47.702;9.826;2023-12-04T01:07:34;9.20;;;7.37;;
20140;SDS011;10231;47.702;9.826;2023-12-04T01:10:00;11.47;;;8.00;;
20140;SDS011;10231;47.702;9.826;2023-12-04T01:12:26;8.80;;;7.77;;
20140;SDS011;10231;47.702;9.826;2023-12-04T01:14:51;9.13;;;7.90;;
20140;SDS011;10231;47.702;9.826;2023-12-04T01:17:17;8.67;;;6.93;;
20140;SDS011;10231;47.702;9.826;2023-12-04T01:19:43;8.83;;;7.63;;
20140;SDS011;10231;47.702;9.826;2023-12-04T01:22:08;8.20;;;7.07;;
20140;SDS011;10231;47.702;9.826;2023-12-04T01:24:34;10.90;;;7.80;;
20140;SDS011;10231;47.702;9.826;2023-12-04T01:26:59;7.77;;;6.93;;
20140;SDS011;10231;47.702;9.826;2023-12-04T01:29:25;8.57;;;7.07;;
20140;SDS011;10231;47.702;9.826;2023-12-04T01:31:50;8.40;;;7.30;;
20140;SDS011;10231;47.702;9.826;2023-12-04T01:34:16;8.00;;;7.20;;
20140;SDS011;10231;47.702;9.826;2023-12-04T01:36:42;7.87;;;7.07;;
20140;SDS011;10231;47.702;9.826;2023-12-04T01:39:07;8.60;;;6.83;;
20140;SDS011;10231;47.702;9.826;2023-12-04T01:41:33;7.37;;;6.67;;
20140;SDS011;10231;47.702;9.826;2023-12-04T01:43:58;9.57;;;7.60;;
20140;SDS011;10231;47.702;9.826;2023-12-04T01:46:24;7.93;;;7.00;;
20140;SDS011;10231;47.702;9.826;2023-12-04T01:48:50;8.15;;;7.30;;
20140;SDS011;10231;47.702;9.826;2023-12-04T01:51:16;8.30;;;6.83;;
20140;SDS011;10231;47.702;9.826;2023-12-04T01:53:42;8.90;;;7.35;;
20140;SDS011;10231;47.702;9.826;2023-12-04T01:56:08;7.50;;;5.93;;
20140;SDS011;10231;47.702;9.826;2023-12-04T01:58:35;8.20;;;7.35;;
20140;SDS011;10231;47.702;9.826;2023-12-04T02:01:01;6.90;;;6.18;;
20140;SDS011;10231;47.702;9.826;2023-12-04T02:03:27;7.43;;;6.30;;
20140;SDS011;10231;47.702;9.826;2023-12-04T02:05:53;8.23;;;5.90;;
20140;SDS011;10231;47.702;9.826;2023-12-04T02:08:21;7.78;;;6.63;;
20140;SDS011;10231;47.702;9.826;2023-12-04T02:10:47;7.30;;;6.53;;
20140;SDS011;10231;47.702;9.826;2023-12-04T02:13:13;8.90;;;6.57;;
20140;SDS011;10231;47.702;9.826;2023-12-04T02:15:39;6.80;;;6.10;;
20140;SDS011;10231;47.702;9.826;2023-12-04T02:18:05;6.90;;;6.27;;
20140;SDS011;10231;47.702;9.826;2023-12-04T02:20:34;6.90;;;5.33;;
20140;SDS011;10231;47.702;9.826;2023-12-04T02:23:02;8.00;;;6.53;;
20140;SDS011;10231;47.702;9.826;2023-12-04T02:25:28;7.00;;;6.35;;
20140;SDS011;10231;47.702;9.826;2023-12-04T02:27:56;6.68;;;5.97;;
20140;SDS011;10231;47.702;9.826;2023-12-04T02:30:24;6.47;;;5.80;;
20140;SDS011;10231;47.702;9.826;2023-12-04T02:32:51;5.55;;;5.05;;
20140;SDS011;10231;47.702;9.826;2023-12-04T02:35:20;5.82;;;5.22;;
20140;SDS011;10231;47.702;9.826;2023-12-04T02:37:48;5.60;;;4.88;;
20140;SDS011;10231;47.702;9.826;2023-12-04T02:40:14;7.32;;;5.57;;
20140;SDS011;10231;47.702;9.826;2023-12-04T02:42:40;7.10;;;5.88;;
20140;SDS011;10231;47.702;9.826;2023-12-04T02:45:06;6.90;;;5.67;;
20140;SDS011;10231;47.702;9.826;2023-12-04T02:47:32;6.75;;;5.95;;
20140;SDS011;10231;47.702;9.826;2023-12-04T02:49:58;8.37;;;6.60;;
20140;SDS011;10231;47.702;9.826;2023-12-04T02:52:23;9.00;;;5.63;;
20140;SDS011;10231;47.702;9.826;2023-12-04T02:54:49;7.87;;;5.97;;
20140;SDS011;10231;47.702;9.826;2023-12-04T02:57:14;6.00;;;5.40;;
20140;SDS011;10231;47.702;9.826;2023-12-04T02:59:40;7.17;;;5.87;;
20140;SDS011;10231;47.702;9.826;2023-12-04T03:02:06;7.43;;;5.30;;
20140;SDS011;10231;47.702;9.826;2023-12-04T03:04:31;6.67;;;5.80;;
20140;SDS011;10231;47.702;9.826;2023-12-04T03:06:57;6.93;;;6.23;;
20140;SDS011;10231;47.702;9.826;2023-12-04T03:09:22;7.30;;;5.93;;
20140;SDS011;10231;47.702;9.826;2023-12-04T03:11:48;5.63;;;5.13;;
20140;SDS011;10231;47.702;9.826;2023-12-04T03:14:14;8.47;;;5.77;;
20140;SDS011;10231;47.702;9.826;2023-12-04T03:16:39;6.37;;;5.77;;
20140;SDS011;10231;47.702;9.826;2023-12-04T03:19:05;6.87;;;6.20;;
20140;SDS011;10231;47.702;9.826;2023-12-04T03:21:31;6.00;;;5.27;;
20140;SDS011;10231;47.702;9.826;2023-12-04T03:23:56;7.00;;;5.70;;
20140;SDS011;10231;47.702;9.826;2023-12-04T03:26:22;7.13;;;5.43;;
20140;SDS011;10231;47.702;9.826;2023-12-04T03:28:47;6.87;;;5.53;;
20140;SDS011;10231;47.702;9.826;2023-12-04T03:31:13;7.77;;;5.70;;
20140;SDS011;10231;47.702;9.826;2023-12-04T03:33:38;6.67;;;5.53;;
20140;SDS011;10231;47.702;9.826;2023-12-04T03:36:04;7.97;;;5.87;;
20140;SDS011;10231;47.702;9.826;2023-12-04T03:38:30;6.05;;;5.53;;
20140;SDS011;10231;47.702;9.826;2023-12-04T03:40:56;7.40;;;4.93;;
20140;SDS011;10231;47.702;9.826;2023-12-04T03:43:21;6.70;;;5.47;;
20140;SDS011;10231;47.702;9.826;2023-12-04T03:45:47;5.93;;;5.23;;
20140;SDS011;10231;47.702;9.826;2023-12-04T03:48:12;8.33;;;5.70;;
20140;SDS011;10231;47.702;9.826;2023-12-04T03:50:38;6.50;;;5.53;;
20140;SDS011;10231;47.702;9.826;2023-12-04T03:53:03;5.53;;;4.93;;
20140;SDS011;10231;47.702;9.826;2023-12-04T03:55:29;5.73;;;5.13;;
20140;SDS011;10231;47.702;9.826;2023-12-04T03:57:54;5.27;;;4.77;;
20140;SDS011;10231;47.702;9.826;2023-12-04T04:00:21;5.90;;;5.40;;
20140;SDS011;10231;47.702;9.826;2023-12-04T04:02:47;5.00;;;4.50;;
20140;SDS011;10231;47.702;9.826;2023-12-04T04:05:13;5.40;;;4.35;;
20140;SDS011;10231;47.702;9.826;2023-12-04T04:07:39;5.73;;;5.23;;
20140;SDS011;10231;47.702;9.826;2023-12-04T04:10:05;5.50;;;5.00;;
20140;SDS011;10231;47.702;9.826;2023-12-04T04:12:31;5.57;;;4.97;;
20140;SDS011;10231;47.702;9.826;2023-12-04T04:14:57;5.40;;;3.87;;
20140;SDS011;10231;47.702;9.826;2023-12-04T04:17:23;6.57;;;4.70;;
20140;SDS011;10231;47.702;9.826;2023-12-04T04:19:54;6.55;;;4.72;;
20140;SDS011;10231;47.702;9.826;2023-12-04T04:22:20;4.88;;;4.40;;
20140;SDS011;10231;47.702;9.826;2023-12-04T04:24:47;5.10;;;4.40;;
20140;SDS011;10231;47.702;9.826;2023-12-04T04:27:12;5.13;;;4.47;;
20140;SDS011;10231;47.702;9.826;2023-12-04T04:29:38;5.30;;;4.80;;
20140;SDS011;10231;47.702;9.826;2023-12-04T04:32:04;4.80;;;4.30;;
20140;SDS011;10231;47.702;9.826;2023-12-04T04:34:30;5.10;;;4.60;;
20140;SDS011;10231;47.702;9.826;2023-12-04T04:36:55;6.07;;;5.10;;
20140;SDS011;10231;47.702;9.826;2023-12-04T04:39:21;6.70;;;4.73;;
20140;SDS011;10231;47.702;9.826;2023-12-04T04:41:46;7.33;;;4.83;;
20140;SDS011;10231;47.702;9.826;2023-12-04T04:44:12;5.63;;;4.33;;
20140;SDS011;10231;47.702;9.826;2023-12-04T04:46:37;7.10;;;4.83;;
20140;SDS011;10231;47.702;9.826;2023-12-04T04:49:03;6.37;;;4.80;;
20140;SDS011;10231;47.702;9.826;2023-12-04T04:51:31;5.32;;;4.78;;
20140;SDS011;10231;47.702;9.826;2023-12-04T04:53:58;7.05;;;4.57;;
20140;SDS011;10231;47.702;9.826;2023-12-04T04:56:24;8.20;;;5.33;;
20140;SDS011;10231;47.702;9.826;2023-12-04T04:58:49;7.23;;;5.23;;
20140;SDS011;10231;47.702;9.826;2023-12-04T05:01:15;9.53;;;6.07;;
20140;SDS011;10231;47.702;9.826;2023-12-04T05:03:41;8.87;;;5.90;;
20140;SDS011;10231;47.702;9.826;2023-12-04T05:06:06;9.00;;;6.53;;
20140;SDS011;10231;47.702;9.826;2023-12-04T05:08:32;10.60;;;6.17;;
20140;SDS011;10231;47.702;9.826;2023-12-04T05:10:57;10.67;;;6.43;;
20140;SDS011;10231;47.702;9.826;2023-12-04T05:13:23;9.73;;;6.83;;
20140;SDS011;10231;47.702;9.826;2023-12-04T05:15:48;14.80;;;7.20;;
20140;SDS011;10231;47.702;9.826;2023-12-04T05:18:14;13.00;;;6.90;;
20140;SDS011;10231;47.702;9.826;2023-12-04T05:20:40;15.17;;;8.33;;
20140;SDS011;10231;47.702;9.826;2023-12-04T05:23:05;14.47;;;8.10;;
20140;SDS011;10231;47.702;9.826;2023-12-04T05:25:31;13.40;;;7.53;;
20140;SDS011;10231;47.702;9.826;2023-12-04T05:27:56;13.17;;;7.33;;
20140;SDS011;10231;47.702;9.826;2023-12-04T05:30:22;11.03;;;7.67;;
20140;SDS011;10231;47.702;9.826;2023-12-04T05:32:48;16.80;;;8.40;;
20140;SDS011;10231;47.702;9.826;2023-12-04T05:35:15;13.13;;;8.03;;
20140;SDS011;10231;47.702;9.826;2023-12-04T05:37:41;17.92;;;8.65;;
20140;SDS011;10231;47.702;9.826;2023-12-04T05:40:07;16.47;;;8.60;;
20140;SDS011;10231;47.702;9.826;2023-12-04T05:42:33;15.80;;;8.70;;
20140;SDS011;10231;47.702;9.826;2023-12-04T05:44:59;19.40;;;9.70;;
20140;SDS011;10231;47.702;9.826;2023-12-04T05:47:25;15.80;;;8.18;;
20140;SDS011;10231;47.702;9.826;2023-12-04T05:49:51;17.43;;;8.73;;
20140;SDS011;10231;47.702;9.826;2023-12-04T05:52:16;19.20;;;10.00;;
20140;SDS011;10231;47.702;9.826;2023-12-04T05:54:42;42.93;;;27.00;;
20140;SDS011;10231;47.702;9.826;2023-12-04T05:57:08;26.53;;;16.77;;
20140;SDS011;10231;47.702;9.826;2023-12-04T05:59:33;31.50;;;25.00;;
20140;SDS011;10231;47.702;9.826;2023-12-04T06:01:59;25.03;;;15.27;;
20140;SDS011;10231;47.702;9.826;2023-12-04T06:04:24;22.67;;;11.83;;
20140;SDS011;10231;47.702;9.826;2023-12-04T06:06:50;24.07;;;11.33;;
20140;SDS011;10231;47.702;9.826;2023-12-04T06:09:16;21.33;;;10.50;;
20140;SDS011;10231;47.702;9.826;2023-12-04T06:11:41;21.27;;;10.47;;
20140;SDS011;10231;47.702;9.826;2023-12-04T06:14:07;20.08;;;10.52;;
20140;SDS011;10231;47.702;9.826;2023-12-04T06:16:33;20.37;;;9.40;;
20140;SDS011;10231;47.702;9.826;2023-12-04T06:18:58;21.80;;;11.47;;
20140;SDS011;10231;47.702;9.826;2023-12-04T06:21:24;25.13;;;11.90;;
20140;SDS011;10231;47.702;9.826;2023-12-04T06:23:49;28.07;;;12.50;;
20140;SDS011;10231;47.702;9.826;2023-12-04T06:26:15;24.53;;;12.43;;
20140;SDS011;10231;47.702;9.826;2023-12-04T06:28:42;30.90;;;13.30;;
20140;SDS011;10231;47.702;9.826;2023-12-04T06:31:08;48.15;;;15.65;;
20140;SDS011;10231;47.702;9.826;2023-12-04T06:33:34;41.65;;;16.60;;
20140;SDS011;10231;47.702;9.826;2023-12-04T06:36:01;35.63;;;16.13;;
20140;SDS011;10231;47.702;9.826;2023-12-04T06:38:26;30.08;;;13.93;;
20140;SDS011;10231;47.702;9.826;2023-12-04T06:40:56;37.47;;;15.85;;
20140;SDS011;10231;47.702;9.826;2023-12-04T06:43:22;30.50;;;14.30;;
20140;SDS011;10231;47.702;9.826;2023-12-04T06:45:48;49.13;;;23.77;;
20140;SDS011;10231;47.702;9.826;2023-12-04T06:48:14;51.00;;;21.07;;
20140;SDS011;10231;47.702;9.826;2023-12-04T06:50:40;34.35;;;17.20;;
20140;SDS011;10231;47.702;9.826;2023-12-04T06:53:06;35.63;;;19.40;;
20140;SDS011;10231;47.702;9.826;2023-12-04T06:55:32;31.37;;;16.17;;
20140;SDS011;10231;47.702;9.826;2023-12-04T06:57:57;30.50;;;15.40;;
20140;SDS011;10231;47.702;9.826;2023-12-04T07:00:23;30.27;;;14.77;;
20140;SDS011;10231;47.702;9.826;2023-12-04T07:02:49;27.67;;;14.80;;
20140;SDS011;10231;47.702;9.826;2023-12-04T07:05:15;26.67;;;14.68;;
20140;SDS011;10231;47.702;9.826;2023-12-04T07:07:41;24.43;;;13.57;;
20140;SDS011;10231;47.702;9.826;2023-12-04T07:10:07;24.10;;;13.87;;
20140;SDS011;10231;47.702;9.826;2023-12-04T07:12:32;23.50;;;12.13;;
20140;SDS011;10231;47.702;9.826;2023-12-04T07:14:58;22.97;;;11.17;;
20140;SDS011;10231;47.702;9.826;2023-12-04T07:17:24;21.13;;;11.93;;
20140;SDS011;10231;47.702;9.826;2023-12-04T07:19:49;23.73;;;12.57;;
20140;SDS011;10231;47.702;9.826;2023-12-04T07:22:15;22.70;;;11.80;;
20140;SDS011;10231;47.702;9.826;2023-12-04T07:24:40;21.70;;;12.47;;
20140;SDS011;10231;47.702;9.826;2023-12-04T07:27:06;23.97;;;13.37;;
20140;SDS011;10231;47.702;9.826;2023-12-04T07:29:31;21.87;;;12.70;;
20140;SDS011;10231;47.702;9.826;2023-12-04T07:31:57;19.73;;;11.03;;
20140;SDS011;10231;47.702;9.826;2023-12-04T07:34:23;18.92;;;11.52;;
20140;SDS011;10231;47.702;9.826;2023-12-04T07:36:49;19.70;;;10.87;;
20140;SDS011;10231;47.702;9.826;2023-12-04T07:39:15;18.17;;;10.85;;
20140;SDS011;10231;47.702;9.826;2023-12-04T07:41:41;19.03;;;12.67;;
20140;SDS011;10231;47.702;9.826;2023-12-04T07:44:07;18.30;;;11.60;;
20140;SDS011;10231;47.702;9.826;2023-12-04T07:46:33;20.75;;;12.55;;
20140;SDS011;10231;47.702;9.826;2023-12-04T07:48:59;21.47;;;13.40;;
20140;SDS011;10231;47.702;9.826;2023-12-04T07:51:24;17.97;;;12.00;;
20140;SDS011;10231;47.702;9.826;2023-12-04T07:53:50;19.73;;;12.83;;
20140;SDS011;10231;47.702;9.826;2023-12-04T07:56:15;20.53;;;13.70;;
20140;SDS011;10231;47.702;9.826;2023-12-04T07:58:41;15.17;;;10.37;;
20140;SDS011;10231;47.702;9.826;2023-12-04T08:01:06;16.93;;;11.27;;
20140;SDS011;10231;47.702;9.826;2023-12-04T08:03:33;14.38;;;9.85;;
20140;SDS011;10231;47.702;9.826;2023-12-04T08:05:58;14.33;;;10.43;;
20140;SDS011;10231;47.702;9.826;2023-12-04T08:08:24;13.83;;;8.37;;
20140;SDS011;10231;47.702;9.826;2023-12-04T08:10:50;12.60;;;7.43;;
20140;SDS011;10231;47.702;9.826;2023-12-04T08:13:15;10.73;;;7.07;;
20140;SDS011;10231;47.702;9.826;2023-12-04T08:15:41;10.80;;;7.50;;
20140;SDS011;10231;47.702;9.826;2023-12-04T08:18:07;9.97;;;6.50;;
20140;SDS011;10231;47.702;9.826;2023-12-04T08:20:33;12.03;;;9.03;;
20140;SDS011;10231;47.702;9.826;2023-12-04T08:22:58;10.27;;;8.47;;
20140;SDS011;10231;47.702;9.826;2023-12-04T08:25:24;11.23;;;7.07;;
20140;SDS011;10231;47.702;9.826;2023-12-04T08:27:49;6.33;;;5.20;;
20140;SDS011;10231;47.702;9.826;2023-12-04T08:30:16;12.47;;;8.67;;
20140;SDS011;10231;47.702;9.826;2023-12-04T08:32:41;9.93;;;7.07;;
20140;SDS011;10231;47.702;9.826;2023-12-04T08:35:07;7.67;;;6.07;;
20140;SDS011;10231;47.702;9.826;2023-12-04T08:37:32;6.63;;;5.47;;
20140;SDS011;10231;47.702;9.826;2023-12-04T08:39:58;6.87;;;5.60;;
20140;SDS011;10231;47.702;9.826;2023-12-04T08:42:23;7.20;;;5.23;;
20140;SDS011;10231;47.702;9.826;2023-12-04T08:44:49;7.97;;;6.67;;
20140;SDS011;10231;47.702;9.826;2023-12-04T08:47:15;8.10;;;6.20;;
20140;SDS011;10231;47.702;9.826;2023-12-04T08:49:40;11.33;;;6.63;;
20140;SDS011;10231;47.702;9.826;2023-12-04T08:52:06;9.27;;;6.33;;
20140;SDS011;10231;47.702;9.826;2023-12-04T08:54:32;14.57;;;9.10;;
20140;SDS011;10231;47.702;9.826;2023-12-04T08:56:58;17.73;;;12.27;;
20140;SDS011;10231;47.702;9.826;2023-12-04T08:59:23;14.60;;;10.50;;
20140;SDS011;10231;47.702;9.826;2023-12-04T09:01:49;15.63;;;10.00;;
20140;SDS011;10231;47.702;9.826;2023-12-04T09:04:14;18.70;;;11.63;;
20140;SDS011;10231;47.702;9.826;2023-12-04T09:06:40;16.77;;;11.47;;
20140;SDS011;10231;47.702;9.826;2023-12-04T09:09:05;20.50;;;13.27;;
20140;SDS011;10231;47.702;9.826;2023-12-04T09:11:31;16.87;;;11.40;;
20140;SDS011;10231;47.702;9.826;2023-12-04T09:13:57;17.10;;;11.97;;
20140;SDS011;10231;47.702;9.826;2023-12-04T09:16:22;17.53;;;12.60;;
20140;SDS011;10231;47.702;9.826;2023-12-04T09:18:48;13.00;;;9.40;;
20140;SDS011;10231;47.702;9.826;2023-12-04T09:21:14;15.37;;;10.57;;
20140;SDS011;10231;47.702;9.826;2023-12-04T09:23:39;13.43;;;10.30;;
20140;SDS011;10231;47.702;9.826;2023-12-04T09:26:05;14.33;;;10.03;;
20140;SDS011;10231;47.702;9.826;2023-12-04T09:28:30;14.67;;;9.63;;
20140;SDS011;10231;47.702;9.826;2023-12-04T09:30:56;15.50;;;9.50;;
20140;SDS011;10231;47.702;9.826;2023-12-04T09:33:21;11.77;;;8.27;;
20140;SDS011;10231;47.702;9.826;2023-12-04T09:35:47;18.40;;;12.53;;
20140;SDS011;10231;47.702;9.826;2023-12-04T09:38:12;14.93;;;10.27;;
20140;SDS011;10231;47.702;9.826;2023-12-04T09:40:38;15.73;;;9.83;;
20140;SDS011;10231;47.702;9.826;2023-12-04T09:43:05;22.27;;;12.67;;
20140;SDS011;10231;47.702;9.826;2023-12-04T09:45:32;16.10;;;10.97;;
20140;SDS011;10231;47.702;9.826;2023-12-04T09:47:58;15.93;;;9.53;;
20140;SDS011;10231;47.702;9.826;2023-12-04T09:50:24;12.87;;;8.93;;
20140;SDS011;10231;47.702;9.826;2023-12-04T09:52:50;13.50;;;8.83;;
20140;SDS011;10231;47.702;9.826;2023-12-04T09:55:16;14.40;;;9.70;;
20140;SDS011;10231;47.702;9.826;2023-12-04T09:57:43;14.27;;;9.57;;
20140;SDS011;10231;47.702;9.826;2023-12-04T10:00:10;13.93;;;9.77;;
20140;SDS011;10231;47.702;9.826;2023-12-04T10:02:39;15.37;;;9.60;;
20140;SDS011;10231;47.702;9.826;2023-12-04T10:05:06;14.57;;;10.27;;
20140;SDS011;10231;47.702;9.826;2023-12-04T10:07:32;14.80;;;9.40;;
20140;SDS011;10231;47.702;9.826;2023-12-04T10:09:58;13.57;;;9.03;;
20140;SDS011;10231;47.702;9.826;2023-12-04T10:12:23;13.50;;;9.33;;
20140;SDS011;10231;47.702;9.826;2023-12-04T10:15:02;14.57;;;9.53;;
20140;SDS011;10231;47.702;9.826;2023-12-04T10:17:38;15.57;;;11.40;;
20140;SDS011;10231;47.702;9.826;2023-12-04T10:22:51;16.00;;;11.00;;
20140;SDS011;10231;47.702;9.826;2023-12-04T10:25:24;19.03;;;11.10;;
20140;SDS011;10231;47.702;9.826;2023-12-04T10:27:52;16.20;;;10.10;;
20140;SDS011;10231;47.702;9.826;2023-12-04T10:30:22;14.57;;;10.07;;
20140;SDS011;10231;47.702;9.826;2023-12-04T10:32:53;18.67;;;11.33;;
20140;SDS011;10231;47.702;9.826;2023-12-04T10:35:25;17.37;;;10.47;;
20140;SDS011;10231;47.702;9.826;2023-12-04T10:37:57;18.90;;;13.17;;
20140;SDS011;10231;47.702;9.826;2023-12-04T10:40:27;18.63;;;11.67;;
20140;SDS011;10231;47.702;9.826;2023-12-04T10:45:42;17.10;;;11.43;;
20140;SDS011;10231;47.702;9.826;2023-12-04T10:48:10;22.40;;;13.23;;
20140;SDS011;10231;47.702;9.826;2023-12-04T10:50:37;16.20;;;10.83;;
20140;SDS011;10231;47.702;9.826;2023-12-04T10:53:05;17.60;;;12.07;;
20140;SDS011;10231;47.702;9.826;2023-12-04T10:55:35;19.27;;;12.03;;
20140;SDS011;10231;47.702;9.826;2023-12-04T10:58:02;15.10;;;11.07;;
20140;SDS011;10231;47.702;9.826;2023-12-04T11:00:38;18.50;;;11.57;;
20140;SDS011;10231;47.702;9.826;2023-12-04T11:03:07;17.63;;;10.97;;
20140;SDS011;10231;47.702;9.826;2023-12-04T11:05:38;15.43;;;10.23;;
20140;SDS011;10231;47.702;9.826;2023-12-04T11:08:05;13.10;;;9.57;;
20140;SDS011;10231;47.702;9.826;2023-12-04T11:10:32;13.37;;;9.70;;
20140;SDS011;10231;47.702;9.826;2023-12-04T11:16:17;14.90;;;11.10;;
20140;SDS011;10231;47.702;9.826;2023-12-04T11:18:48;17.13;;;11.33;;
20140;SDS011;10231;47.702;9.826;2023-12-04T11:21:19;19.00;;;12.17;;
20140;SDS011;10231;47.702;9.826;2023-12-04T11:23:46;16.77;;;11.20;;
20140;SDS011;10231;47.702;9.826;2023-12-04T11:26:13;18.30;;;12.17;;
20140;SDS011;10231;47.702;9.826;2023-12-04T11:28:40;15.67;;;10.93;;
20140;SDS011;10231;47.702;9.826;2023-12-04T11:31:06;16.27;;;11.30;;
20140;SDS011;10231;47.702;9.826;2023-12-04T11:33:38;14.27;;;10.03;;
20140;SDS011;10231;47.702;9.826;2023-12-04T11:36:07;15.73;;;10.97;;
20140;SDS011;10231;47.702;9.826;2023-12-04T11:38:34;14.30;;;10.50;;
20140;SDS011;10231;47.702;9.826;2023-12-04T11:41:01;17.13;;;11.03;;
20140;SDS011;10231;47.702;9.826;2023-12-04T11:43:55;17.80;;;12.10;;
20140;SDS011;10231;47.702;9.826;2023-12-04T11:46:22;21.33;;;13.10;;
20140;SDS011;10231;47.702;9.826;2023-12-04T11:48:49;28.17;;;14.93;;
20140;SDS011;10231;47.702;9.826;2023-12-04T11:52:00;20.70;;;12.90;;
20140;SDS011;10231;47.702;9.826;2023-12-04T11:54:03;18.17;;;12.10;;
20140;SDS011;10231;47.702;9.826;2023-12-04T11:56:30;17.17;;;11.13;;
20140;SDS011;10231;47.702;9.826;2023-12-04T11:59:02;14.00;;;9.73;;
20140;SDS011;10231;47.702;9.826;2023-12-04T12:01:32;13.37;;;9.53;;
20140;SDS011;10231;47.702;9.826;2023-12-04T12:04:04;12.17;;;8.77;;
20140;SDS011;10231;47.702;9.826;2023-12-04T12:06:30;13.17;;;9.73;;
20140;SDS011;10231;47.702;9.826;2023-12-04T12:08:56;12.23;;;9.07;;
20140;SDS011;10231;47.702;9.826;2023-12-04T12:11:25;14.20;;;9.97;;
20140;SDS011;10231;47.702;9.826;2023-12-04T12:13:54;14.57;;;9.50;;
20140;SDS011;10231;47.702;9.826;2023-12-04T12:16:20;16.07;;;10.07;;
20140;SDS011;10231;47.702;9.826;2023-12-04T12:18:46;13.97;;;9.53;;
20140;SDS011;10231;47.702;9.826;2023-12-04T12:21:12;14.87;;;10.17;;
20140;SDS011;10231;47.702;9.826;2023-12-04T12:23:37;16.47;;;10.50;;
20140;SDS011;10231;47.702;9.826;2023-12-04T12:26:03;15.37;;;9.87;;
20140;SDS011;10231;47.702;9.826;2023-12-04T12:28:29;15.73;;;11.30;;
20140;SDS011;10231;47.702;9.826;2023-12-04T12:30:55;14.67;;;10.63;;
20140;SDS011;10231;47.702;9.826;2023-12-04T12:33:20;14.53;;;10.63;;
20140;SDS011;10231;47.702;9.826;2023-12-04T12:35:48;12.20;;;9.40;;
20140;SDS011;10231;47.702;9.826;2023-12-04T12:38:14;12.67;;;8.47;;
20140;SDS011;10231;47.702;9.826;2023-12-04T12:40:40;15.60;;;10.43;;
20140;SDS011;10231;47.702;9.826;2023-12-04T12:43:06;11.07;;;9.37;;
20140;SDS011;10231;47.702;9.826;2023-12-04T12:45:39;12.43;;;9.93;;
20140;SDS011;10231;47.702;9.826;2023-12-04T12:48:14;12.40;;;9.67;;
20140;SDS011;10231;47.702;9.826;2023-12-04T12:50:44;10.57;;;8.53;;
20140;SDS011;10231;47.702;9.826;2023-12-04T12:53:11;12.60;;;9.43;;
20140;SDS011;10231;47.702;9.826;2023-12-04T12:55:38;13.50;;;10.30;;
20140;SDS011;10231;47.702;9.826;2023-12-04T12:58:05;14.30;;;10.17;;
20140;SDS011;10231;47.702;9.826;2023-12-04T13:00:32;13.33;;;10.30;;
20140;SDS011;10231;47.702;9.826;2023-12-04T13:02:59;14.47;;;9.60;;
20140;SDS011;10231;47.702;9.826;2023-12-04T13:05:25;13.57;;;9.77;;
20140;SDS011;10231;47.702;9.826;2023-12-04T13:07:51;15.80;;;10.60;;
20140;SDS011;10231;47.702;9.826;2023-12-04T13:10:16;12.97;;;10.10;;
20140;SDS011;10231;47.702;9.826;2023-12-04T13:12:42;14.77;;;10.60;;
20140;SDS011;10231;47.702;9.826;2023-12-04T13:15:08;16.30;;;11.23;;
20140;SDS011;10231;47.702;9.826;2023-12-04T13:17:35;16.17;;;11.70;;
20140;SDS011;10231;47.702;9.826;2023-12-04T13:20:01;16.43;;;11.10;;
20140;SDS011;10231;47.702;9.826;2023-12-04T13:22:29;18.13;;;11.77;;
20140;SDS011;10231;47.702;9.826;2023-12-04T13:24:54;16.83;;;11.10;;
20140;SDS011;10231;47.702;9.826;2023-12-04T13:27:20;16.83;;;11.67;;
20140;SDS011;10231;47.702;9.826;2023-12-04T13:29:45;17.17;;;12.07;;
20140;SDS011;10231;47.702;9.826;2023-12-04T13:32:15;17.87;;;11.43;;
20140;SDS011;10231;47.702;9.826;2023-12-04T13:34:40;16.97;;;11.83;;
20140;SDS011;10231;47.702;9.826;2023-12-04T13:37:06;17.50;;;12.13;;
20140;SDS011;10231;47.702;9.826;2023-12-04T13:39:31;18.83;;;12.53;;
20140;SDS011;10231;47.702;9.826;2023-12-04T13:42:13;18.47;;;13.03;;
20140;SDS011;10231;47.702;9.826;2023-12-04T13:44:57;18.67;;;12.30;;
20140;SDS011;10231;47.702;9.826;2023-12-04T13:47:24;17.33;;;11.90;;
20140;SDS011;10231;47.702;9.826;2023-12-04T13:49:49;18.13;;;12.97;;
20140;SDS011;10231;47.702;9.826;2023-12-04T13:52:15;19.53;;;12.97;;
20140;SDS011;10231;47.702;9.826;2023-12-04T13:54:44;19.60;;;13.07;;
20140;SDS011;10231;47.702;9.826;2023-12-04T13:57:12;19.33;;;13.43;;
20140;SDS011;10231;47.702;9.826;2023-12-04T13:59:46;17.50;;;12.43;;
20140;SDS011;10231;47.702;9.826;2023-12-04T14:02:11;19.50;;;13.00;;
20140;SDS011;10231;47.702;9.826;2023-12-04T14:04:38;20.00;;;14.17;;
20140;SDS011;10231;47.702;9.826;2023-12-04T14:07:06;20.03;;;14.17;;
20140;SDS011;10231;47.702;9.826;2023-12-04T14:09:36;20.33;;;14.83;;
20140;SDS011;10231;47.702;9.826;2023-12-04T14:12:02;23.47;;;15.37;;
20140;SDS011;10231;47.702;9.826;2023-12-04T14:14:28;21.13;;;15.20;;
20140;SDS011;10231;47.702;9.826;2023-12-04T14:16:54;24.40;;;16.20;;
20140;SDS011;10231;47.702;9.826;2023-12-04T14:19:19;21.43;;;15.37;;
20140;SDS011;10231;47.702;9.826;2023-12-04T14:21:46;19.33;;;14.07;;
20140;SDS011;10231;47.702;9.826;2023-12-04T14:24:13;20.90;;;14.10;;
20140;SDS011;10231;47.702;9.826;2023-12-04T14:26:39;19.37;;;13.83;;
20140;SDS011;10231;47.702;9.826;2023-12-04T14:29:04;20.00;;;13.70;;
20140;SDS011;10231;47.702;9.826;2023-12-04T14:31:32;18.67;;;13.13;;
20140;SDS011;10231;47.702;9.826;2023-12-04T14:34:01;21.23;;;14.23;;
20140;SDS011;10231;47.702;9.826;2023-12-04T14:36:28;18.93;;;13.07;;
20140;SDS011;10231;47.702;9.826;2023-12-04T14:38:56;19.77;;;14.30;;